sensor_id;sensor_type;location;lat;lon;timestamp;P1;durP1;ratioP1;P2;durP2;ratioP2
12480;SDS011;6305;48.398;11.762;2022-12-18T00:01:18;138.23;;;45.33;;
12480;SDS011;6305;48.398;11.762;2022-12-18T00:03:46;141.50;;;45.83;;
12480;SDS011;6305;48.398;11.762;2022-12-18T00:06:13;140.10;;;44.70;;
12480;SDS011;6305;48.398;11.762;2022-12-18T00:08:40;126.20;;;41.07;;
12480;SDS011;6305;48.398;11.762;2022-12-18T00:11:08;150.10;;;43.87;;
12480;SDS011;6305;48.398;11.762;2022-12-18T00:13:37;127.50;;;42.00;;
12480;SDS011;6305;48.398;11.762;2022-12-18T00:16:07;130.73;;;41.87;;
12480;SDS011;6305;48.398;11.762;2022-12-18T00:18:35;128.47;;;41.00;;
12480;SDS011;6305;48.398;11.762;2022-12-18T00:21:03;131.77;;;42.50;;
12480;SDS011;6305;48.398;11.762;2022-12-18T00:23:32;129.20;;;40.00;;
12480;SDS011;6305;48.398;11.762;2022-12-18T00:26:00;127.77;;;40.83;;
12480;SDS011;6305;48.398;11.762;2022-12-18T00:28:27;117.07;;;39.93;;
12480;SDS011;6305;48.398;11.762;2022-12-18T00:30:59;124.67;;;40.17;;
12480;SDS011;6305;48.398;11.762;2022-12-18T00:33:28;113.90;;;38.17;;
12480;SDS011;6305;48.398;11.762;2022-12-18T00:35:54;118.03;;;37.20;;
12480;SDS011;6305;48.398;11.762;2022-12-18T00:38:26;124.23;;;40.57;;
12480;SDS011;6305;48.398;11.762;2022-12-18T00:40:53;124.60;;;37.93;;
12480;SDS011;6305;48.398;11.762;2022-12-18T00:43:20;115.80;;;39.97;;
12480;SDS011;6305;48.398;11.762;2022-12-18T00:45:46;118.60;;;36.97;;
12480;SDS011;6305;48.398;11.762;2022-12-18T00:48:13;135.47;;;40.97;;
12480;SDS011;6305;48.398;11.762;2022-12-18T00:50:41;127.43;;;39.50;;
12480;SDS011;6305;48.398;11.762;2022-12-18T00:53:08;125.67;;;38.57;;
12480;SDS011;6305;48.398;11.762;2022-12-18T00:55:35;117.30;;;38.57;;
12480;SDS011;6305;48.398;11.762;2022-12-18T00:58:03;131.83;;;40.00;;
12480;SDS011;6305;48.398;11.762;2022-12-18T01:00:30;122.87;;;37.60;;
12480;SDS011;6305;48.398;11.762;2022-12-18T01:02:57;123.40;;;37.67;;
12480;SDS011;6305;48.398;11.762;2022-12-18T01:05:24;116.87;;;38.23;;
12480;SDS011;6305;48.398;11.762;2022-12-18T01:07:52;125.47;;;37.93;;
12480;SDS011;6305;48.398;11.762;2022-12-18T01:10:20;118.80;;;36.97;;
12480;SDS011;6305;48.398;11.762;2022-12-18T01:12:46;120.27;;;38.53;;
12480;SDS011;6305;48.398;11.762;2022-12-18T01:15:14;119.37;;;38.23;;
12480;SDS011;6305;48.398;11.762;2022-12-18T01:17:41;110.93;;;37.43;;
12480;SDS011;6305;48.398;11.762;2022-12-18T01:20:09;122.77;;;40.10;;
12480;SDS011;6305;48.398;11.762;2022-12-18T01:22:36;128.23;;;40.17;;
12480;SDS011;6305;48.398;11.762;2022-12-18T01:25:05;127.33;;;39.03;;
12480;SDS011;6305;48.398;11.762;2022-12-18T01:27:32;120.83;;;39.80;;
12480;SDS011;6305;48.398;11.762;2022-12-18T01:30:00;122.20;;;38.47;;
12480;SDS011;6305;48.398;11.762;2022-12-18T01:32:28;116.30;;;38.33;;
12480;SDS011;6305;48.398;11.762;2022-12-18T01:34:55;116.43;;;36.70;;
12480;SDS011;6305;48.398;11.762;2022-12-18T01:37:22;119.83;;;39.17;;
12480;SDS011;6305;48.398;11.762;2022-12-18T01:39:51;122.13;;;39.17;;
12480;SDS011;6305;48.398;11.762;2022-12-18T01:42:20;125.77;;;38.33;;
12480;SDS011;6305;48.398;11.762;2022-12-18T01:44:55;124.83;;;37.83;;
12480;SDS011;6305;48.398;11.762;2022-12-18T01:47:35;133.97;;;39.20;;
12480;SDS011;6305;48.398;11.762;2022-12-18T01:50:06;130.10;;;41.03;;
12480;SDS011;6305;48.398;11.762;2022-12-18T01:52:35;129.67;;;39.93;;
12480;SDS011;6305;48.398;11.762;2022-12-18T01:55:07;113.03;;;38.80;;
12480;SDS011;6305;48.398;11.762;2022-12-18T01:57:36;119.60;;;38.83;;
12480;SDS011;6305;48.398;11.762;2022-12-18T02:00:05;116.37;;;36.80;;
12480;SDS011;6305;48.398;11.762;2022-12-18T02:02:34;114.70;;;36.90;;
12480;SDS011;6305;48.398;11.762;2022-12-18T02:05:02;113.37;;;35.50;;
12480;SDS011;6305;48.398;11.762;2022-12-18T02:07:32;112.67;;;36.73;;
12480;SDS011;6305;48.398;11.762;2022-12-18T02:10:06;110.27;;;36.10;;
12480;SDS011;6305;48.398;11.762;2022-12-18T02:12:42;119.57;;;38.53;;
12480;SDS011;6305;48.398;11.762;2022-12-18T02:15:15;114.60;;;38.23;;
12480;SDS011;6305;48.398;11.762;2022-12-18T02:17:52;116.70;;;37.57;;
12480;SDS011;6305;48.398;11.762;2022-12-18T02:20:24;109.57;;;36.10;;
12480;SDS011;6305;48.398;11.762;2022-12-18T02:23:01;109.83;;;35.50;;
12480;SDS011;6305;48.398;11.762;2022-12-18T02:25:40;107.77;;;35.37;;
12480;SDS011;6305;48.398;11.762;2022-12-18T02:28:31;112.90;;;35.43;;
12480;SDS011;6305;48.398;11.762;2022-12-18T02:31:01;112.07;;;37.20;;
12480;SDS011;6305;48.398;11.762;2022-12-18T02:33:31;104.57;;;33.90;;
12480;SDS011;6305;48.398;11.762;2022-12-18T02:36:00;102.80;;;33.57;;
12480;SDS011;6305;48.398;11.762;2022-12-18T02:38:29;98.20;;;34.53;;
12480;SDS011;6305;48.398;11.762;2022-12-18T02:40:57;105.23;;;34.43;;
12480;SDS011;6305;48.398;11.762;2022-12-18T02:43:25;123.07;;;35.37;;
12480;SDS011;6305;48.398;11.762;2022-12-18T02:45:53;112.03;;;34.60;;
12480;SDS011;6305;48.398;11.762;2022-12-18T02:48:22;108.13;;;33.60;;
12480;SDS011;6305;48.398;11.762;2022-12-18T02:50:54;105.70;;;36.20;;
12480;SDS011;6305;48.398;11.762;2022-12-18T02:53:27;97.60;;;32.53;;
12480;SDS011;6305;48.398;11.762;2022-12-18T02:56:03;94.93;;;33.43;;
12480;SDS011;6305;48.398;11.762;2022-12-18T02:58:38;106.37;;;35.67;;
12480;SDS011;6305;48.398;11.762;2022-12-18T03:01:14;106.20;;;35.57;;
12480;SDS011;6305;48.398;11.762;2022-12-18T03:03:46;99.17;;;34.60;;
12480;SDS011;6305;48.398;11.762;2022-12-18T03:06:18;95.00;;;33.60;;
12480;SDS011;6305;48.398;11.762;2022-12-18T03:08:54;94.87;;;33.80;;
12480;SDS011;6305;48.398;11.762;2022-12-18T03:11:27;96.57;;;32.43;;
12480;SDS011;6305;48.398;11.762;2022-12-18T03:14:15;104.50;;;36.30;;
12480;SDS011;6305;48.398;11.762;2022-12-18T03:16:46;111.33;;;36.17;;
12480;SDS011;6305;48.398;11.762;2022-12-18T03:19:16;101.77;;;37.27;;
12480;SDS011;6305;48.398;11.762;2022-12-18T03:21:48;109.30;;;34.50;;
12480;SDS011;6305;48.398;11.762;2022-12-18T03:24:17;87.20;;;31.20;;
12480;SDS011;6305;48.398;11.762;2022-12-18T03:26:48;86.20;;;30.53;;
12480;SDS011;6305;48.398;11.762;2022-12-18T03:29:21;108.13;;;34.33;;
12480;SDS011;6305;48.398;11.762;2022-12-18T03:31:53;100.37;;;34.37;;
12480;SDS011;6305;48.398;11.762;2022-12-18T03:34:25;103.23;;;34.20;;
12480;SDS011;6305;48.398;11.762;2022-12-18T03:36:56;95.83;;;31.43;;
12480;SDS011;6305;48.398;11.762;2022-12-18T03:39:23;82.23;;;27.93;;
12480;SDS011;6305;48.398;11.762;2022-12-18T03:41:52;79.17;;;27.70;;
12480;SDS011;6305;48.398;11.762;2022-12-18T03:44:28;68.80;;;24.60;;
12480;SDS011;6305;48.398;11.762;2022-12-18T03:46:59;73.10;;;25.17;;
12480;SDS011;6305;48.398;11.762;2022-12-18T03:49:33;69.10;;;24.93;;
12480;SDS011;6305;48.398;11.762;2022-12-18T03:52:03;65.90;;;26.30;;
12480;SDS011;6305;48.398;11.762;2022-12-18T03:54:33;72.97;;;25.40;;
12480;SDS011;6305;48.398;11.762;2022-12-18T03:57:04;75.53;;;27.07;;
12480;SDS011;6305;48.398;11.762;2022-12-18T03:59:33;72.80;;;27.33;;
12480;SDS011;6305;48.398;11.762;2022-12-18T04:02:02;75.87;;;27.23;;
12480;SDS011;6305;48.398;11.762;2022-12-18T04:04:31;79.53;;;27.50;;
12480;SDS011;6305;48.398;11.762;2022-12-18T04:07:01;77.30;;;28.67;;
12480;SDS011;6305;48.398;11.762;2022-12-18T04:09:28;88.93;;;29.30;;
12480;SDS011;6305;48.398;11.762;2022-12-18T04:11:57;89.73;;;30.20;;
12480;SDS011;6305;48.398;11.762;2022-12-18T04:14:25;86.43;;;28.47;;
12480;SDS011;6305;48.398;11.762;2022-12-18T04:16:52;89.50;;;30.50;;
12480;SDS011;6305;48.398;11.762;2022-12-18T04:19:20;93.57;;;31.97;;
12480;SDS011;6305;48.398;11.762;2022-12-18T04:21:46;100.97;;;32.73;;
12480;SDS011;6305;48.398;11.762;2022-12-18T04:24:13;97.77;;;31.83;;
12480;SDS011;6305;48.398;11.762;2022-12-18T04:26:40;97.87;;;32.30;;
12480;SDS011;6305;48.398;11.762;2022-12-18T04:29:07;102.60;;;31.93;;
12480;SDS011;6305;48.398;11.762;2022-12-18T04:31:35;95.80;;;30.73;;
12480;SDS011;6305;48.398;11.762;2022-12-18T04:34:02;90.70;;;31.43;;
12480;SDS011;6305;48.398;11.762;2022-12-18T04:36:29;92.73;;;29.93;;
12480;SDS011;6305;48.398;11.762;2022-12-18T04:38:56;91.53;;;29.00;;
12480;SDS011;6305;48.398;11.762;2022-12-18T04:41:23;80.17;;;29.00;;
12480;SDS011;6305;48.398;11.762;2022-12-18T04:43:49;78.50;;;27.27;;
12480;SDS011;6305;48.398;11.762;2022-12-18T04:46:16;76.60;;;29.20;;
12480;SDS011;6305;48.398;11.762;2022-12-18T04:48:44;80.63;;;28.27;;
12480;SDS011;6305;48.398;11.762;2022-12-18T04:51:11;80.90;;;28.60;;
12480;SDS011;6305;48.398;11.762;2022-12-18T04:53:38;76.57;;;27.40;;
12480;SDS011;6305;48.398;11.762;2022-12-18T04:56:05;79.30;;;28.77;;
12480;SDS011;6305;48.398;11.762;2022-12-18T04:58:34;81.10;;;27.93;;
12480;SDS011;6305;48.398;11.762;2022-12-18T05:01:01;77.40;;;28.43;;
12480;SDS011;6305;48.398;11.762;2022-12-18T05:03:28;80.03;;;29.13;;
12480;SDS011;6305;48.398;11.762;2022-12-18T05:05:56;73.73;;;28.90;;
12480;SDS011;6305;48.398;11.762;2022-12-18T05:08:24;71.17;;;26.93;;
12480;SDS011;6305;48.398;11.762;2022-12-18T05:10:57;66.90;;;24.13;;
12480;SDS011;6305;48.398;11.762;2022-12-18T05:13:24;64.20;;;25.90;;
12480;SDS011;6305;48.398;11.762;2022-12-18T05:15:51;68.07;;;26.33;;
12480;SDS011;6305;48.398;11.762;2022-12-18T05:18:19;75.07;;;27.60;;
12480;SDS011;6305;48.398;11.762;2022-12-18T05:20:45;86.27;;;29.47;;
12480;SDS011;6305;48.398;11.762;2022-12-18T05:23:14;85.53;;;29.23;;
12480;SDS011;6305;48.398;11.762;2022-12-18T05:25:40;85.97;;;28.63;;
12480;SDS011;6305;48.398;11.762;2022-12-18T05:28:07;86.73;;;29.97;;
12480;SDS011;6305;48.398;11.762;2022-12-18T05:30:34;93.07;;;29.20;;
12480;SDS011;6305;48.398;11.762;2022-12-18T05:33:01;89.77;;;27.87;;
12480;SDS011;6305;48.398;11.762;2022-12-18T05:35:28;79.77;;;27.17;;
12480;SDS011;6305;48.398;11.762;2022-12-18T05:37:54;81.10;;;28.80;;
12480;SDS011;6305;48.398;11.762;2022-12-18T05:40:22;76.40;;;26.53;;
12480;SDS011;6305;48.398;11.762;2022-12-18T05:42:50;78.07;;;28.27;;
12480;SDS011;6305;48.398;11.762;2022-12-18T05:45:16;67.27;;;25.60;;
12480;SDS011;6305;48.398;11.762;2022-12-18T05:47:43;73.67;;;27.70;;
12480;SDS011;6305;48.398;11.762;2022-12-18T05:50:10;79.37;;;28.60;;
12480;SDS011;6305;48.398;11.762;2022-12-18T05:52:37;77.73;;;27.03;;
12480;SDS011;6305;48.398;11.762;2022-12-18T05:55:04;82.17;;;26.57;;
12480;SDS011;6305;48.398;11.762;2022-12-18T05:57:32;69.80;;;25.20;;
12480;SDS011;6305;48.398;11.762;2022-12-18T05:59:59;69.27;;;26.10;;
12480;SDS011;6305;48.398;11.762;2022-12-18T06:02:26;70.37;;;25.37;;
12480;SDS011;6305;48.398;11.762;2022-12-18T06:04:52;67.97;;;26.07;;
12480;SDS011;6305;48.398;11.762;2022-12-18T06:07:19;68.60;;;26.53;;
12480;SDS011;6305;48.398;11.762;2022-12-18T06:09:46;63.43;;;24.40;;
12480;SDS011;6305;48.398;11.762;2022-12-18T06:12:13;72.30;;;25.43;;
12480;SDS011;6305;48.398;11.762;2022-12-18T06:14:42;67.97;;;24.47;;
12480;SDS011;6305;48.398;11.762;2022-12-18T06:17:08;66.67;;;24.40;;
12480;SDS011;6305;48.398;11.762;2022-12-18T06:19:35;63.07;;;22.83;;
12480;SDS011;6305;48.398;11.762;2022-12-18T06:22:02;67.87;;;24.73;;
12480;SDS011;6305;48.398;11.762;2022-12-18T06:24:29;67.13;;;24.17;;
12480;SDS011;6305;48.398;11.762;2022-12-18T06:26:56;58.63;;;22.50;;
12480;SDS011;6305;48.398;11.762;2022-12-18T06:29:23;67.53;;;25.27;;
12480;SDS011;6305;48.398;11.762;2022-12-18T06:31:51;66.87;;;26.47;;
12480;SDS011;6305;48.398;11.762;2022-12-18T06:34:18;65.47;;;26.53;;
12480;SDS011;6305;48.398;11.762;2022-12-18T06:36:44;66.23;;;26.43;;
12480;SDS011;6305;48.398;11.762;2022-12-18T06:39:11;67.53;;;25.60;;
12480;SDS011;6305;48.398;11.762;2022-12-18T06:41:38;76.80;;;27.13;;
12480;SDS011;6305;48.398;11.762;2022-12-18T06:44:05;71.77;;;27.37;;
12480;SDS011;6305;48.398;11.762;2022-12-18T06:46:31;70.67;;;25.87;;
12480;SDS011;6305;48.398;11.762;2022-12-18T06:49:01;70.00;;;27.83;;
12480;SDS011;6305;48.398;11.762;2022-12-18T06:51:27;66.60;;;26.00;;
12480;SDS011;6305;48.398;11.762;2022-12-18T06:53:54;68.93;;;25.93;;
12480;SDS011;6305;48.398;11.762;2022-12-18T06:56:22;73.13;;;25.43;;
12480;SDS011;6305;48.398;11.762;2022-12-18T06:58:49;68.20;;;25.90;;
12480;SDS011;6305;48.398;11.762;2022-12-18T07:01:16;66.73;;;23.87;;
12480;SDS011;6305;48.398;11.762;2022-12-18T07:03:43;63.80;;;23.63;;
12480;SDS011;6305;48.398;11.762;2022-12-18T07:06:14;66.80;;;24.67;;
12480;SDS011;6305;48.398;11.762;2022-12-18T07:08:42;63.07;;;25.40;;
12480;SDS011;6305;48.398;11.762;2022-12-18T07:11:09;78.83;;;27.03;;
12480;SDS011;6305;48.398;11.762;2022-12-18T07:13:36;65.93;;;25.13;;
12480;SDS011;6305;48.398;11.762;2022-12-18T07:16:04;73.73;;;26.20;;
12480;SDS011;6305;48.398;11.762;2022-12-18T07:18:32;68.80;;;24.90;;
12480;SDS011;6305;48.398;11.762;2022-12-18T07:21:02;60.97;;;24.50;;
12480;SDS011;6305;48.398;11.762;2022-12-18T07:23:31;60.53;;;24.23;;
12480;SDS011;6305;48.398;11.762;2022-12-18T07:26:00;62.80;;;24.20;;
12480;SDS011;6305;48.398;11.762;2022-12-18T07:28:28;61.10;;;25.23;;
12480;SDS011;6305;48.398;11.762;2022-12-18T07:30:55;67.13;;;26.27;;
12480;SDS011;6305;48.398;11.762;2022-12-18T07:33:22;57.83;;;23.97;;
12480;SDS011;6305;48.398;11.762;2022-12-18T07:35:48;55.37;;;22.43;;
12480;SDS011;6305;48.398;11.762;2022-12-18T07:38:15;53.13;;;22.80;;
12480;SDS011;6305;48.398;11.762;2022-12-18T07:40:43;53.87;;;23.30;;
12480;SDS011;6305;48.398;11.762;2022-12-18T07:43:10;59.50;;;24.33;;
12480;SDS011;6305;48.398;11.762;2022-12-18T07:45:37;52.97;;;22.60;;
12480;SDS011;6305;48.398;11.762;2022-12-18T07:48:04;53.50;;;22.17;;
12480;SDS011;6305;48.398;11.762;2022-12-18T07:50:31;59.03;;;24.13;;
12480;SDS011;6305;48.398;11.762;2022-12-18T07:52:58;54.87;;;24.27;;
12480;SDS011;6305;48.398;11.762;2022-12-18T07:55:28;52.93;;;22.67;;
12480;SDS011;6305;48.398;11.762;2022-12-18T07:57:56;55.57;;;22.10;;
12480;SDS011;6305;48.398;11.762;2022-12-18T08:00:26;54.83;;;22.97;;
12480;SDS011;6305;48.398;11.762;2022-12-18T08:02:53;52.37;;;22.63;;
12480;SDS011;6305;48.398;11.762;2022-12-18T08:05:20;59.73;;;24.37;;
12480;SDS011;6305;48.398;11.762;2022-12-18T08:07:47;58.57;;;24.23;;
12480;SDS011;6305;48.398;11.762;2022-12-18T08:10:14;59.10;;;23.67;;
12480;SDS011;6305;48.398;11.762;2022-12-18T08:12:41;54.80;;;23.27;;
12480;SDS011;6305;48.398;11.762;2022-12-18T08:15:10;57.53;;;22.93;;
12480;SDS011;6305;48.398;11.762;2022-12-18T08:17:37;51.63;;;21.47;;
12480;SDS011;6305;48.398;11.762;2022-12-18T08:20:04;56.90;;;24.43;;
12480;SDS011;6305;48.398;11.762;2022-12-18T08:22:33;55.97;;;23.33;;
12480;SDS011;6305;48.398;11.762;2022-12-18T08:25:00;56.17;;;24.90;;
12480;SDS011;6305;48.398;11.762;2022-12-18T08:27:27;53.00;;;22.83;;
12480;SDS011;6305;48.398;11.762;2022-12-18T08:29:54;52.93;;;21.30;;
12480;SDS011;6305;48.398;11.762;2022-12-18T08:32:22;53.87;;;23.17;;
12480;SDS011;6305;48.398;11.762;2022-12-18T08:34:50;51.93;;;23.27;;
12480;SDS011;6305;48.398;11.762;2022-12-18T08:37:16;47.00;;;20.47;;
12480;SDS011;6305;48.398;11.762;2022-12-18T08:39:43;49.60;;;21.67;;
12480;SDS011;6305;48.398;11.762;2022-12-18T08:42:10;48.17;;;21.50;;
12480;SDS011;6305;48.398;11.762;2022-12-18T08:44:54;49.87;;;22.30;;
12480;SDS011;6305;48.398;11.762;2022-12-18T08:47:22;51.67;;;22.50;;
12480;SDS011;6305;48.398;11.762;2022-12-18T08:49:51;51.37;;;21.47;;
12480;SDS011;6305;48.398;11.762;2022-12-18T08:52:17;53.20;;;22.73;;
12480;SDS011;6305;48.398;11.762;2022-12-18T08:54:44;48.93;;;22.00;;
12480;SDS011;6305;48.398;11.762;2022-12-18T08:57:11;46.07;;;21.80;;
12480;SDS011;6305;48.398;11.762;2022-12-18T08:59:38;45.63;;;20.53;;
12480;SDS011;6305;48.398;11.762;2022-12-18T09:02:05;51.70;;;21.73;;
12480;SDS011;6305;48.398;11.762;2022-12-18T09:04:34;48.40;;;21.53;;
12480;SDS011;6305;48.398;11.762;2022-12-18T09:07:00;54.60;;;22.07;;
12480;SDS011;6305;48.398;11.762;2022-12-18T09:09:27;46.50;;;21.00;;
12480;SDS011;6305;48.398;11.762;2022-12-18T09:11:54;54.70;;;24.23;;
12480;SDS011;6305;48.398;11.762;2022-12-18T09:14:21;53.60;;;22.70;;
12480;SDS011;6305;48.398;11.762;2022-12-18T09:16:47;46.43;;;20.30;;
12480;SDS011;6305;48.398;11.762;2022-12-18T09:19:14;47.63;;;20.60;;
12480;SDS011;6305;48.398;11.762;2022-12-18T09:21:42;46.10;;;20.53;;
12480;SDS011;6305;48.398;11.762;2022-12-18T09:24:10;48.13;;;22.23;;
12480;SDS011;6305;48.398;11.762;2022-12-18T09:26:38;44.10;;;20.60;;
12480;SDS011;6305;48.398;11.762;2022-12-18T09:29:05;43.77;;;19.67;;
12480;SDS011;6305;48.398;11.762;2022-12-18T09:31:33;42.27;;;18.47;;
12480;SDS011;6305;48.398;11.762;2022-12-18T09:34:00;45.60;;;20.10;;
12480;SDS011;6305;48.398;11.762;2022-12-18T09:36:27;44.43;;;21.37;;
12480;SDS011;6305;48.398;11.762;2022-12-18T09:38:55;42.07;;;19.07;;
12480;SDS011;6305;48.398;11.762;2022-12-18T09:44:14;37.67;;;18.30;;
12480;SDS011;6305;48.398;11.762;2022-12-18T09:47:01;38.57;;;18.60;;
12480;SDS011;6305;48.398;11.762;2022-12-18T09:49:36;46.03;;;21.80;;
12480;SDS011;6305;48.398;11.762;2022-12-18T09:52:09;40.27;;;18.33;;
12480;SDS011;6305;48.398;11.762;2022-12-18T09:54:44;38.43;;;19.93;;
12480;SDS011;6305;48.398;11.762;2022-12-18T09:57:14;43.10;;;19.73;;
12480;SDS011;6305;48.398;11.762;2022-12-18T09:59:44;44.23;;;19.70;;
12480;SDS011;6305;48.398;11.762;2022-12-18T10:02:17;40.33;;;17.60;;
12480;SDS011;6305;48.398;11.762;2022-12-18T10:04:50;37.77;;;18.33;;
12480;SDS011;6305;48.398;11.762;2022-12-18T10:07:35;40.17;;;19.87;;
12480;SDS011;6305;48.398;11.762;2022-12-18T10:10:21;47.87;;;23.80;;
12480;SDS011;6305;48.398;11.762;2022-12-18T10:12:57;49.43;;;21.43;;
12480;SDS011;6305;48.398;11.762;2022-12-18T10:15:34;44.30;;;20.20;;
12480;SDS011;6305;48.398;11.762;2022-12-18T10:18:07;41.23;;;19.03;;
12480;SDS011;6305;48.398;11.762;2022-12-18T10:20:47;40.30;;;19.77;;
12480;SDS011;6305;48.398;11.762;2022-12-18T10:23:18;43.83;;;20.00;;
12480;SDS011;6305;48.398;11.762;2022-12-18T10:25:55;44.40;;;20.23;;
12480;SDS011;6305;48.398;11.762;2022-12-18T10:28:27;41.97;;;19.90;;
12480;SDS011;6305;48.398;11.762;2022-12-18T10:30:56;41.97;;;19.90;;
12480;SDS011;6305;48.398;11.762;2022-12-18T10:33:27;41.07;;;19.27;;
12480;SDS011;6305;48.398;11.762;2022-12-18T10:35:54;40.87;;;19.77;;
12480;SDS011;6305;48.398;11.762;2022-12-18T10:38:23;40.37;;;19.33;;
12480;SDS011;6305;48.398;11.762;2022-12-18T10:40:51;41.30;;;19.63;;
12480;SDS011;6305;48.398;11.762;2022-12-18T10:43:22;43.03;;;20.53;;
12480;SDS011;6305;48.398;11.762;2022-12-18T10:46:01;36.60;;;18.97;;
12480;SDS011;6305;48.398;11.762;2022-12-18T10:48:39;40.97;;;19.37;;
12480;SDS011;6305;48.398;11.762;2022-12-18T10:51:19;45.13;;;20.13;;
12480;SDS011;6305;48.398;11.762;2022-12-18T10:53:51;39.40;;;18.93;;
12480;SDS011;6305;48.398;11.762;2022-12-18T10:56:21;37.67;;;18.07;;
12480;SDS011;6305;48.398;11.762;2022-12-18T10:58:55;37.07;;;18.50;;
12480;SDS011;6305;48.398;11.762;2022-12-18T11:01:24;33.90;;;16.53;;
12480;SDS011;6305;48.398;11.762;2022-12-18T11:03:58;34.73;;;18.83;;
12480;SDS011;6305;48.398;11.762;2022-12-18T11:06:27;40.50;;;23.00;;
12480;SDS011;6305;48.398;11.762;2022-12-18T11:08:58;41.43;;;25.00;;
12480;SDS011;6305;48.398;11.762;2022-12-18T11:11:27;40.60;;;19.07;;
12480;SDS011;6305;48.398;11.762;2022-12-18T11:13:57;41.93;;;20.80;;
12480;SDS011;6305;48.398;11.762;2022-12-18T11:16:27;37.13;;;18.40;;
12480;SDS011;6305;48.398;11.762;2022-12-18T11:18:59;32.80;;;16.87;;
12480;SDS011;6305;48.398;11.762;2022-12-18T11:21:39;35.87;;;16.07;;
12480;SDS011;6305;48.398;11.762;2022-12-18T11:24:07;32.43;;;16.07;;
12480;SDS011;6305;48.398;11.762;2022-12-18T11:26:48;36.50;;;16.73;;
12480;SDS011;6305;48.398;11.762;2022-12-18T11:29:16;31.57;;;15.97;;
12480;SDS011;6305;48.398;11.762;2022-12-18T11:31:48;30.87;;;15.67;;
12480;SDS011;6305;48.398;11.762;2022-12-18T11:34:16;33.33;;;16.80;;
12480;SDS011;6305;48.398;11.762;2022-12-18T11:36:50;34.80;;;16.30;;
12480;SDS011;6305;48.398;11.762;2022-12-18T11:39:18;34.20;;;16.77;;
12480;SDS011;6305;48.398;11.762;2022-12-18T11:42:01;32.47;;;16.30;;
12480;SDS011;6305;48.398;11.762;2022-12-18T11:44:39;32.30;;;16.27;;
12480;SDS011;6305;48.398;11.762;2022-12-18T11:47:13;33.10;;;15.80;;
12480;SDS011;6305;48.398;11.762;2022-12-18T11:49:47;31.80;;;17.30;;
12480;SDS011;6305;48.398;11.762;2022-12-18T11:52:16;37.43;;;17.10;;
12480;SDS011;6305;48.398;11.762;2022-12-18T11:54:47;36.57;;;18.23;;
12480;SDS011;6305;48.398;11.762;2022-12-18T11:57:21;30.63;;;15.93;;
12480;SDS011;6305;48.398;11.762;2022-12-18T12:00:01;37.00;;;16.50;;
12480;SDS011;6305;48.398;11.762;2022-12-18T12:02:41;30.53;;;15.47;;
12480;SDS011;6305;48.398;11.762;2022-12-18T12:05:31;31.07;;;15.87;;
12480;SDS011;6305;48.398;11.762;2022-12-18T12:08:09;31.20;;;15.07;;
12480;SDS011;6305;48.398;11.762;2022-12-18T12:10:45;31.83;;;16.17;;
12480;SDS011;6305;48.398;11.762;2022-12-18T12:13:26;35.50;;;16.10;;
12480;SDS011;6305;48.398;11.762;2022-12-18T12:16:04;29.87;;;16.40;;
12480;SDS011;6305;48.398;11.762;2022-12-18T12:18:48;35.30;;;16.83;;
12480;SDS011;6305;48.398;11.762;2022-12-18T12:21:34;37.77;;;16.30;;
12480;SDS011;6305;48.398;11.762;2022-12-18T12:24:09;34.03;;;17.13;;
12480;SDS011;6305;48.398;11.762;2022-12-18T12:26:49;32.60;;;16.60;;
12480;SDS011;6305;48.398;11.762;2022-12-18T12:29:28;30.47;;;15.83;;
12480;SDS011;6305;48.398;11.762;2022-12-18T12:32:08;32.10;;;15.90;;
12480;SDS011;6305;48.398;11.762;2022-12-18T12:34:46;32.80;;;16.70;;
12480;SDS011;6305;48.398;11.762;2022-12-18T12:37:24;33.20;;;17.30;;
12480;SDS011;6305;48.398;11.762;2022-12-18T12:40:00;31.57;;;15.90;;
12480;SDS011;6305;48.398;11.762;2022-12-18T12:42:30;30.83;;;15.10;;
12480;SDS011;6305;48.398;11.762;2022-12-18T12:45:22;31.40;;;15.73;;
12480;SDS011;6305;48.398;11.762;2022-12-18T12:47:54;35.27;;;17.20;;
12480;SDS011;6305;48.398;11.762;2022-12-18T12:50:23;33.87;;;16.77;;
12480;SDS011;6305;48.398;11.762;2022-12-18T12:52:52;32.97;;;16.73;;
12480;SDS011;6305;48.398;11.762;2022-12-18T12:55:21;32.13;;;16.67;;
12480;SDS011;6305;48.398;11.762;2022-12-18T12:57:52;31.13;;;16.30;;
12480;SDS011;6305;48.398;11.762;2022-12-18T13:00:25;32.47;;;15.77;;
12480;SDS011;6305;48.398;11.762;2022-12-18T13:02:59;32.80;;;16.73;;
12480;SDS011;6305;48.398;11.762;2022-12-18T13:05:34;31.87;;;16.60;;
12480;SDS011;6305;48.398;11.762;2022-12-18T13:08:07;33.93;;;16.37;;
12480;SDS011;6305;48.398;11.762;2022-12-18T13:10:36;33.60;;;16.30;;
12480;SDS011;6305;48.398;11.762;2022-12-18T13:13:05;32.43;;;15.70;;
12480;SDS011;6305;48.398;11.762;2022-12-18T13:15:39;35.17;;;17.23;;
12480;SDS011;6305;48.398;11.762;2022-12-18T13:18:13;30.87;;;15.20;;
12480;SDS011;6305;48.398;11.762;2022-12-18T13:20:43;31.37;;;15.83;;
12480;SDS011;6305;48.398;11.762;2022-12-18T13:23:19;30.87;;;15.17;;
12480;SDS011;6305;48.398;11.762;2022-12-18T13:25:58;30.53;;;15.67;;
12480;SDS011;6305;48.398;11.762;2022-12-18T13:34:34;30.40;;;16.70;;
12480;SDS011;6305;48.398;11.762;2022-12-18T13:43:15;36.57;;;18.97;;
12480;SDS011;6305;48.398;11.762;2022-12-18T13:45:49;36.57;;;16.77;;
12480;SDS011;6305;48.398;11.762;2022-12-18T13:48:27;35.97;;;17.10;;
12480;SDS011;6305;48.398;11.762;2022-12-18T13:50:58;35.70;;;17.00;;
12480;SDS011;6305;48.398;11.762;2022-12-18T13:53:28;32.63;;;16.50;;
12480;SDS011;6305;48.398;11.762;2022-12-18T13:55:59;34.67;;;16.43;;
12480;SDS011;6305;48.398;11.762;2022-12-18T13:58:25;30.37;;;15.53;;
12480;SDS011;6305;48.398;11.762;2022-12-18T14:00:52;34.23;;;17.10;;
12480;SDS011;6305;48.398;11.762;2022-12-18T14:03:21;31.63;;;15.20;;
12480;SDS011;6305;48.398;11.762;2022-12-18T14:05:55;30.50;;;16.17;;
12480;SDS011;6305;48.398;11.762;2022-12-18T14:08:25;32.37;;;15.70;;
12480;SDS011;6305;48.398;11.762;2022-12-18T14:10:58;39.70;;;17.83;;
12480;SDS011;6305;48.398;11.762;2022-12-18T14:13:26;34.60;;;17.37;;
12480;SDS011;6305;48.398;11.762;2022-12-18T14:15:55;36.80;;;16.80;;
12480;SDS011;6305;48.398;11.762;2022-12-18T14:18:25;35.97;;;17.77;;
12480;SDS011;6305;48.398;11.762;2022-12-18T14:20:58;32.67;;;16.43;;
12480;SDS011;6305;48.398;11.762;2022-12-18T14:23:28;34.87;;;17.37;;
12480;SDS011;6305;48.398;11.762;2022-12-18T14:25:56;44.50;;;19.70;;
12480;SDS011;6305;48.398;11.762;2022-12-18T14:28:24;35.33;;;17.90;;
12480;SDS011;6305;48.398;11.762;2022-12-18T14:30:51;37.10;;;18.20;;
12480;SDS011;6305;48.398;11.762;2022-12-18T14:33:20;37.13;;;18.83;;
12480;SDS011;6305;48.398;11.762;2022-12-18T14:35:52;38.80;;;17.50;;
12480;SDS011;6305;48.398;11.762;2022-12-18T14:38:24;40.37;;;18.50;;
12480;SDS011;6305;48.398;11.762;2022-12-18T14:40:59;40.43;;;19.20;;
12480;SDS011;6305;48.398;11.762;2022-12-18T14:43:28;37.30;;;18.20;;
12480;SDS011;6305;48.398;11.762;2022-12-18T14:45:57;42.87;;;20.00;;
12480;SDS011;6305;48.398;11.762;2022-12-18T14:48:32;38.63;;;18.07;;
12480;SDS011;6305;48.398;11.762;2022-12-18T14:51:01;42.97;;;20.30;;